createdAt,value
2023-05-19T00:01:31.150Z,12.25
2023-05-19T00:04:02.933Z,12.26
2023-05-19T00:06:32.705Z,12.29
2023-05-19T00:09:04.556Z,12.24
2023-05-19T00:11:32.421Z,12.20
2023-05-19T00:14:00.733Z,12.21
2023-05-19T00:16:29.349Z,12.16
2023-05-19T00:19:04.081Z,12.16
2023-05-19T00:21:32.282Z,12.09
2023-05-19T00:24:00.223Z,12.05
2023-05-19T00:26:28.242Z,11.94
2023-05-19T00:29:02.048Z,11.95
2023-05-19T00:31:30.094Z,11.94
2023-05-19T00:33:57.870Z,11.95
2023-05-19T00:36:26.399Z,11.90
2023-05-19T00:38:54.426Z,11.90
2023-05-19T00:41:22.779Z,11.88
2023-05-19T00:43:51.217Z,11.89
2023-05-19T00:46:19.363Z,11.95
2023-05-19T00:48:46.786Z,12.01
2023-05-19T00:51:17.162Z,11.98
2023-05-19T00:53:49.321Z,11.98
2023-05-19T00:56:18.421Z,11.99
2023-05-19T00:58:46.874Z,11.96
2023-05-19T01:01:17.303Z,11.95
2023-05-19T01:03:47.131Z,11.92
2023-05-19T01:06:15.104Z,11.93
2023-05-19T01:08:42.914Z,11.94
2023-05-19T01:11:10.850Z,11.94
2023-05-19T01:13:40.331Z,11.92
2023-05-19T01:16:33.866Z,11.89
2023-05-19T01:19:22.015Z,11.88
2023-05-19T01:21:52.026Z,11.91
2023-05-19T01:24:57.730Z,11.98
2023-05-19T01:28:22.602Z,11.92
2023-05-19T01:30:56.171Z,11.97
2023-05-19T01:33:25.174Z,11.93
2023-05-19T01:35:56.066Z,11.91
2023-05-19T01:38:28.669Z,11.92
2023-05-19T01:40:58.930Z,11.94
2023-05-19T01:43:28.089Z,11.99
2023-05-19T01:45:58.889Z,11.98
2023-05-19T01:48:28.892Z,12.02
2023-05-19T01:50:59.001Z,12.04
2023-05-19T01:53:26.702Z,12.01
2023-05-19T01:55:56.979Z,11.99
2023-05-19T01:58:36.792Z,11.94
2023-05-19T02:01:33.567Z,11.89
2023-05-19T02:04:06.254Z,11.98
2023-05-19T02:06:52.912Z,12.00
2023-05-19T02:10:04.923Z,11.97
2023-05-19T02:12:37.733Z,11.96
2023-05-19T02:15:17.934Z,11.91
2023-05-19T02:17:50.727Z,11.85
2023-05-19T02:20:18.994Z,11.87
2023-05-19T02:22:47.218Z,11.80
2023-05-19T02:25:15.050Z,11.79
2023-05-19T02:27:43.232Z,11.74
2023-05-19T02:30:11.097Z,11.78
2023-05-19T02:32:38.737Z,11.76
2023-05-19T02:35:07.048Z,11.74
2023-05-19T02:37:39.059Z,11.74
2023-05-19T02:40:07.959Z,11.77
2023-05-19T02:42:35.758Z,11.74
2023-05-19T02:45:03.648Z,11.75
2023-05-19T02:47:31.383Z,11.80
2023-05-19T02:50:00.846Z,11.85
2023-05-19T02:52:28.717Z,11.86
2023-05-19T02:54:56.327Z,11.86
2023-05-19T02:57:24.207Z,11.83
2023-05-19T02:59:52.007Z,11.91
2023-05-19T03:02:19.732Z,11.91
2023-05-19T03:04:47.339Z,11.90
2023-05-19T03:07:15.653Z,11.92
2023-05-19T03:09:43.195Z,11.91
2023-05-19T03:12:10.812Z,11.94
2023-05-19T03:14:38.794Z,12.00
2023-05-19T03:17:10.369Z,12.01
2023-05-19T03:19:38.101Z,12.03
2023-05-19T03:22:05.755Z,12.09
2023-05-19T03:24:35.168Z,12.11
2023-05-19T03:27:05.922Z,12.16
2023-05-19T03:29:34.008Z,12.21
2023-05-19T03:32:01.776Z,12.16
2023-05-19T03:34:30.147Z,12.33
2023-05-19T03:36:58.735Z,12.37
2023-05-19T03:39:26.501Z,12.40
2023-05-19T03:41:54.191Z,12.37
2023-05-19T03:44:21.865Z,12.37
2023-05-19T03:46:49.606Z,12.43
2023-05-19T03:49:17.228Z,12.63
2023-05-19T03:52:03.494Z,12.70
2023-05-19T03:54:57.799Z,12.78
2023-05-19T03:57:26.149Z,12.89
2023-05-19T03:59:54.542Z,12.96
2023-05-19T04:02:22.376Z,13.06
2023-05-19T04:04:51.279Z,13.22
2023-05-19T04:07:18.973Z,13.18
2023-05-19T04:09:48.688Z,13.36
2023-05-19T04:12:16.245Z,13.48
2023-05-19T04:14:43.867Z,13.57
2023-05-19T04:17:11.878Z,13.63
2023-05-19T04:19:39.638Z,13.66
2023-05-19T04:22:07.335Z,13.53
2023-05-19T04:24:34.869Z,13.64
2023-05-19T04:27:04.771Z,13.61
2023-05-19T04:29:32.705Z,13.53
2023-05-19T04:32:01.041Z,13.56
2023-05-19T04:34:29.035Z,13.45
2023-05-19T04:36:57.495Z,13.60
2023-05-19T04:39:25.729Z,13.69
2023-05-19T04:41:54.242Z,13.65
2023-05-19T04:44:22.107Z,13.81
2023-05-19T04:46:54.474Z,13.72
2023-05-19T04:49:24.478Z,13.75
2023-05-19T04:51:55.569Z,13.90
2023-05-19T04:54:26.765Z,13.96
2023-05-19T04:56:55.029Z,14.07
2023-05-19T04:59:27.521Z,14.10
2023-05-19T05:01:56.177Z,13.97
2023-05-19T05:04:25.048Z,14.20
2023-05-19T05:06:52.661Z,14.30
2023-05-19T05:09:21.688Z,14.52
2023-05-19T05:11:51.719Z,14.49
2023-05-19T05:14:20.611Z,14.38
2023-05-19T05:16:48.925Z,14.23
2023-05-19T05:19:22.351Z,14.47
2023-05-19T05:21:50.781Z,14.44
2023-05-19T05:24:19.034Z,14.64
2023-05-19T05:26:52.470Z,14.85
2023-05-19T05:29:21.022Z,14.79
2023-05-19T05:31:48.595Z,14.72
2023-05-19T05:34:17.694Z,14.70
2023-05-19T05:36:45.669Z,15.00
2023-05-19T05:39:13.890Z,14.87
2023-05-19T05:41:43.221Z,14.90
2023-05-19T05:44:12.789Z,14.87
2023-05-19T05:46:43.066Z,14.90
2023-05-19T05:49:12.577Z,14.93
2023-05-19T05:51:54.236Z,14.93
2023-05-19T05:54:33.045Z,14.88
2023-05-19T05:57:02.550Z,14.82
2023-05-19T05:59:30.466Z,14.88
2023-05-19T06:01:58.007Z,14.89
2023-05-19T06:04:25.938Z,15.16
2023-05-19T06:07:00.927Z,14.97
2023-05-19T06:09:32.959Z,14.88
2023-05-19T06:12:01.703Z,14.92
2023-05-19T06:14:34.644Z,14.78
2023-05-19T06:17:11.381Z,14.70
2023-05-19T06:19:39.162Z,14.82
2023-05-19T06:22:06.772Z,14.86
2023-05-19T06:24:34.719Z,14.89
2023-05-19T06:27:02.777Z,15.12
2023-05-19T06:29:30.551Z,15.18
2023-05-19T06:32:02.543Z,15.17
2023-05-19T06:34:31.297Z,15.27
2023-05-19T06:37:02.357Z,15.26
2023-05-19T06:39:31.008Z,15.24
2023-05-19T06:41:58.921Z,15.28
2023-05-19T06:45:01.928Z,15.25
2023-05-19T06:47:29.917Z,15.46
2023-05-19T06:49:58.007Z,15.39
2023-05-19T06:52:30.090Z,15.38
2023-05-19T06:54:57.744Z,15.78
2023-05-19T06:57:25.326Z,16.02
2023-05-19T06:59:52.959Z,16.12
2023-05-19T07:02:20.700Z,16.38
2023-05-19T07:04:48.785Z,16.39
2023-05-19T07:07:17.574Z,16.53
2023-05-19T07:09:45.848Z,16.30
2023-05-19T07:12:13.843Z,16.22
2023-05-19T07:14:41.432Z,16.62
2023-05-19T07:17:09.385Z,17.05
2023-05-19T07:19:39.779Z,17.60
2023-05-19T07:22:07.462Z,18.24
2023-05-19T07:24:34.951Z,18.69
2023-05-19T07:27:02.724Z,19.41
2023-05-19T07:29:30.726Z,19.80
2023-05-19T07:31:58.837Z,19.43
2023-05-19T07:34:26.757Z,19.16
2023-05-19T07:36:54.543Z,20.13
2023-05-19T07:39:23.720Z,20.16
2023-05-19T07:41:55.620Z,20.50
2023-05-19T07:44:23.336Z,21.59
2023-05-19T07:46:51.086Z,23.05
2023-05-19T07:49:18.761Z,23.70
2023-05-19T07:51:46.657Z,24.07
2023-05-19T07:54:14.618Z,23.11
2023-05-19T07:56:42.182Z,22.01
2023-05-19T07:59:09.872Z,21.78
2023-05-19T08:01:37.612Z,21.09
2023-05-19T08:04:05.617Z,20.93
2023-05-19T08:06:33.703Z,20.50
2023-05-19T08:09:02.136Z,20.52
2023-05-19T08:11:30.838Z,20.20
2023-05-19T08:14:00.145Z,19.78
2023-05-19T08:16:29.011Z,20.30
2023-05-19T08:18:57.232Z,20.02
2023-05-19T08:21:25.342Z,18.47
2023-05-19T08:23:53.562Z,18.69
2023-05-19T08:26:21.768Z,19.03
2023-05-19T08:28:50.076Z,19.19
2023-05-19T08:31:18.501Z,18.99
2023-05-19T08:33:46.138Z,18.09
2023-05-19T08:36:13.864Z,18.28
2023-05-19T08:38:41.550Z,18.39
2023-05-19T08:41:09.307Z,18.45
2023-05-19T08:43:37.471Z,18.40
2023-05-19T08:46:06.378Z,18.62
2023-05-19T08:48:37.504Z,18.98
2023-05-19T08:51:35.591Z,19.07
2023-05-19T08:54:15.899Z,19.81
2023-05-19T08:56:45.955Z,19.97
2023-05-19T08:59:18.535Z,20.69
2023-05-19T09:01:47.231Z,20.57
2023-05-19T09:04:17.394Z,22.55
2023-05-19T09:06:45.573Z,23.10
2023-05-19T09:09:13.703Z,23.16
2023-05-19T09:11:41.377Z,21.02
2023-05-19T09:14:08.921Z,21.70
2023-05-19T09:16:36.790Z,22.61
2023-05-19T09:19:04.676Z,22.04
2023-05-19T09:21:33.093Z,21.09
2023-05-19T09:24:08.582Z,21.72
2023-05-19T09:26:41.969Z,20.49
2023-05-19T09:29:16.896Z,20.84
2023-05-19T09:32:06.618Z,20.15
2023-05-19T09:34:34.681Z,21.00
2023-05-19T09:37:02.392Z,21.20
2023-05-19T09:39:30.883Z,21.08
2023-05-19T09:41:58.926Z,21.11
2023-05-19T09:44:31.544Z,21.36
2023-05-19T09:47:00.093Z,21.43
2023-05-19T09:49:30.551Z,21.13
2023-05-19T09:52:02.379Z,21.42
2023-05-19T09:54:32.624Z,21.47
2023-05-19T09:57:03.593Z,21.44
2023-05-19T09:59:33.825Z,21.32
2023-05-19T10:02:02.947Z,20.54
2023-05-19T10:04:32.126Z,21.78
2023-05-19T10:07:05.908Z,21.86
2023-05-19T10:09:36.619Z,22.46
2023-05-19T10:12:05.720Z,23.32
2023-05-19T10:14:33.451Z,24.41
2023-05-19T10:17:01.010Z,24.58
2023-05-19T10:19:31.582Z,24.99
2023-05-19T10:21:59.850Z,25.78
2023-05-19T10:24:27.706Z,25.23
2023-05-19T10:27:05.871Z,23.42
2023-05-19T10:29:51.115Z,24.49
2023-05-19T10:32:27.018Z,24.85
2023-05-19T10:35:44.187Z,24.90
2023-05-19T10:38:48.824Z,25.33
2023-05-19T10:41:59.790Z,24.82
2023-05-19T10:44:36.142Z,25.63
2023-05-19T10:47:07.670Z,25.98
2023-05-19T10:49:36.860Z,25.26
2023-05-19T10:52:21.593Z,24.50
2023-05-19T10:54:54.545Z,24.14
2023-05-19T10:57:31.862Z,24.30
2023-05-19T11:00:11.609Z,24.66
2023-05-19T11:02:44.032Z,25.32
2023-05-19T11:05:20.018Z,23.17
2023-05-19T11:08:08.281Z,26.11
2023-05-19T11:10:36.035Z,27.25
2023-05-19T11:13:06.628Z,26.85
2023-05-19T11:15:38.633Z,25.48
2023-05-19T11:18:06.664Z,25.07
2023-05-19T11:20:39.477Z,26.57
2023-05-19T11:23:15.188Z,27.68
2023-05-19T11:25:51.658Z,27.20
2023-05-19T11:28:26.246Z,27.43
2023-05-19T11:30:59.338Z,27.58
2023-05-19T11:33:27.408Z,27.13
2023-05-19T11:36:00.336Z,27.63
2023-05-19T11:38:30.273Z,24.82
2023-05-19T11:40:58.817Z,24.54
2023-05-19T11:43:26.904Z,23.96
2023-05-19T11:45:56.028Z,23.62
2023-05-19T11:48:26.428Z,23.81
2023-05-19T11:50:54.257Z,24.97
2023-05-19T11:53:23.281Z,24.83
2023-05-19T11:55:51.102Z,24.41
2023-05-19T11:58:27.522Z,23.31
2023-05-19T12:00:55.260Z,23.70
2023-05-19T12:03:28.956Z,24.11
2023-05-19T12:05:57.073Z,24.15
2023-05-19T12:08:27.575Z,24.36
2023-05-19T12:10:56.334Z,23.39
2023-05-19T12:13:24.084Z,22.66
2023-05-19T12:15:52.737Z,22.05
2023-05-19T12:18:21.058Z,22.97
2023-05-19T12:20:48.991Z,23.69
2023-05-19T12:23:17.021Z,23.97
2023-05-19T12:25:44.740Z,23.04
2023-05-19T12:28:12.410Z,22.30
2023-05-19T12:30:40.196Z,22.80
2023-05-19T12:33:09.724Z,23.56
2023-05-19T12:35:38.052Z,22.89
2023-05-19T12:38:07.524Z,22.61
2023-05-19T12:40:37.757Z,23.11
2023-05-19T12:43:06.963Z,23.29
2023-05-19T12:45:39.853Z,23.39
2023-05-19T12:48:16.161Z,22.64
2023-05-19T12:50:45.216Z,22.56
2023-05-19T12:53:15.585Z,23.12
2023-05-19T12:55:45.404Z,23.38
2023-05-19T12:58:13.589Z,23.41
2023-05-19T13:00:47.907Z,24.32
2023-05-19T13:03:22.343Z,24.76
2023-05-19T13:05:51.496Z,26.01
2023-05-19T13:08:23.301Z,25.20
2023-05-19T13:10:51.134Z,24.62
2023-05-19T13:13:19.431Z,23.19
2023-05-19T13:15:50.931Z,23.81
2023-05-19T13:18:18.940Z,23.61
2023-05-19T13:20:49.206Z,24.03
2023-05-19T13:23:17.374Z,23.82
2023-05-19T13:25:45.510Z,23.44
2023-05-19T13:28:13.240Z,23.10
2023-05-19T13:30:43.360Z,23.08
2023-05-19T13:33:12.005Z,23.79
2023-05-19T13:35:40.222Z,23.87
2023-05-19T13:38:10.467Z,23.44
2023-05-19T13:40:39.816Z,23.36
2023-05-19T13:43:08.798Z,23.51
2023-05-19T13:45:36.924Z,23.70
2023-05-19T13:48:07.362Z,23.40
2023-05-19T13:50:35.179Z,22.53
2023-05-19T13:53:03.701Z,23.22
2023-05-19T13:55:32.751Z,23.33
2023-05-19T13:58:00.455Z,23.45
2023-05-19T14:00:28.080Z,23.81
2023-05-19T14:02:56.009Z,23.91
2023-05-19T14:05:24.749Z,24.08
2023-05-19T14:07:52.382Z,24.69
2023-05-19T14:10:20.092Z,24.76
2023-05-19T14:13:14.056Z,25.36
2023-05-19T14:15:37.946Z,24.59
2023-05-19T14:18:07.189Z,24.14
2023-05-19T14:20:35.237Z,23.94
2023-05-19T14:23:03.275Z,23.29
2023-05-19T14:25:30.926Z,23.36
2023-05-19T14:27:58.597Z,22.60
2023-05-19T14:30:26.049Z,23.18
2023-05-19T14:32:53.809Z,23.37
2023-05-19T14:35:21.840Z,23.04
2023-05-19T14:37:51.627Z,22.96
2023-05-19T14:40:20.717Z,22.83
2023-05-19T14:42:48.254Z,21.89
2023-05-19T14:45:15.906Z,22.19
2023-05-19T14:47:43.624Z,22.06
2023-05-19T14:50:11.793Z,22.00
2023-05-19T14:52:39.428Z,21.86
2023-05-19T14:55:07.742Z,21.99
2023-05-19T14:57:35.518Z,21.81
2023-05-19T15:00:03.355Z,21.63
2023-05-19T15:02:30.802Z,21.54
2023-05-19T15:04:58.851Z,21.69
2023-05-19T15:07:27.129Z,21.98
2023-05-19T15:09:54.836Z,21.63
2023-05-19T15:12:22.674Z,20.73
2023-05-19T15:14:50.489Z,21.33
2023-05-19T15:17:18.155Z,21.66
2023-05-19T15:19:45.999Z,21.53
2023-05-19T15:22:13.707Z,21.15
2023-05-19T15:24:41.360Z,21.19
2023-05-19T15:27:09.326Z,21.17
2023-05-19T15:29:37.030Z,21.08
2023-05-19T15:32:04.717Z,20.86
2023-05-19T15:34:32.272Z,20.72
2023-05-19T15:37:03.334Z,20.83
2023-05-19T15:39:31.433Z,20.78
2023-05-19T15:41:59.704Z,20.81
2023-05-19T15:44:29.032Z,20.63
2023-05-19T15:46:56.976Z,20.61
2023-05-19T15:49:25.336Z,20.81
2023-05-19T15:51:52.887Z,20.95
2023-05-19T15:54:20.664Z,20.73
2023-05-19T15:56:48.429Z,20.73
2023-05-19T15:59:16.122Z,20.77
2023-05-19T16:01:43.835Z,20.52
2023-05-19T16:04:11.567Z,19.77
2023-05-19T16:06:39.206Z,20.00
2023-05-19T16:09:07.001Z,20.45
2023-05-19T16:11:34.632Z,21.09
2023-05-19T16:14:02.346Z,21.51
2023-05-19T16:16:30.573Z,21.30
2023-05-19T16:19:01.255Z,20.96
2023-05-19T16:21:28.997Z,20.70
2023-05-19T16:23:56.651Z,20.55
2023-05-19T16:26:24.352Z,20.05
2023-05-19T16:28:51.898Z,19.61
2023-05-19T16:31:19.467Z,19.49
2023-05-19T16:33:47.217Z,19.32
2023-05-19T16:36:14.865Z,19.56
2023-05-19T16:38:42.428Z,19.74
2023-05-19T16:41:12.859Z,20.07
2023-05-19T16:43:40.487Z,20.37
2023-05-19T16:46:10.025Z,20.11
2023-05-19T16:48:38.034Z,19.82
2023-05-19T16:51:05.410Z,20.03
2023-05-19T16:53:32.855Z,20.35
2023-05-19T16:56:00.714Z,20.36
2023-05-19T16:58:29.565Z,19.84
2023-05-19T17:00:58.827Z,19.93
2023-05-19T17:03:26.668Z,19.62
2023-05-19T17:05:54.266Z,19.61
2023-05-19T17:08:21.845Z,19.90
2023-05-19T17:10:49.651Z,19.81
2023-05-19T17:13:17.263Z,19.83
2023-05-19T17:15:44.797Z,19.65
2023-05-19T17:18:12.758Z,19.73
2023-05-19T17:20:41.624Z,19.60
2023-05-19T17:23:09.468Z,19.39
2023-05-19T17:25:37.192Z,19.09
2023-05-19T17:28:04.797Z,18.86
2023-05-19T17:30:33.012Z,18.75
2023-05-19T17:33:01.073Z,18.45
2023-05-19T17:35:28.796Z,18.27
2023-05-19T17:37:57.916Z,18.05
2023-05-19T17:40:25.530Z,17.88
2023-05-19T17:42:53.239Z,17.71
2023-05-19T17:45:20.946Z,17.58
2023-05-19T17:47:48.553Z,17.41
2023-05-19T17:50:16.284Z,17.24
2023-05-19T17:52:44.362Z,17.11
2023-05-19T17:55:12.969Z,16.96
2023-05-19T17:57:45.203Z,16.79
2023-05-19T18:00:13.617Z,16.64
2023-05-19T18:02:41.739Z,16.52
2023-05-19T18:05:09.977Z,16.39
2023-05-19T18:07:41.821Z,16.27
2023-05-19T18:10:10.790Z,16.13
2023-05-19T18:12:38.294Z,16.02
2023-05-19T18:15:06.753Z,15.95
2023-05-19T18:17:34.409Z,15.96
2023-05-19T18:20:02.622Z,16.05
2023-05-19T18:22:30.490Z,16.19
2023-05-19T18:24:58.176Z,16.34
2023-05-19T18:27:27.843Z,16.45
2023-05-19T18:29:55.419Z,16.53
2023-05-19T18:32:23.071Z,16.62
2023-05-19T18:34:51.033Z,16.68
2023-05-19T18:37:18.652Z,16.76
2023-05-19T18:39:47.483Z,16.82
2023-05-19T18:42:15.039Z,16.86
2023-05-19T18:44:46.859Z,16.89
2023-05-19T18:47:22.793Z,16.88
2023-05-19T18:49:50.594Z,16.79
2023-05-19T18:52:19.196Z,16.71
2023-05-19T18:54:47.266Z,16.62
2023-05-19T18:57:15.218Z,16.58
2023-05-19T18:59:43.045Z,16.56
2023-05-19T19:02:10.679Z,16.56
2023-05-19T19:04:38.390Z,16.50
2023-05-19T19:07:06.177Z,16.36
2023-05-19T19:09:34.333Z,16.20
2023-05-19T19:12:02.103Z,16.09
2023-05-19T19:14:29.973Z,16.01
2023-05-19T19:16:57.549Z,15.93
2023-05-19T19:19:28.404Z,15.90
2023-05-19T19:21:56.399Z,15.87
2023-05-19T19:24:23.974Z,15.83
2023-05-19T19:26:51.594Z,15.77
2023-05-19T19:29:21.784Z,15.74
2023-05-19T19:31:49.693Z,15.70
2023-05-19T19:34:20.264Z,15.62
2023-05-19T19:36:48.283Z,15.57
2023-05-19T19:39:15.791Z,15.49
2023-05-19T19:41:43.509Z,15.45
2023-05-19T19:44:11.130Z,15.41
2023-05-19T19:46:38.750Z,15.36
2023-05-19T19:49:06.853Z,15.26
2023-05-19T19:51:34.648Z,15.15
2023-05-19T19:54:02.288Z,15.10
2023-05-19T19:56:30.152Z,15.04
2023-05-19T19:58:59.042Z,15.00
2023-05-19T20:01:27.969Z,14.92
2023-05-19T20:03:57.786Z,14.87
2023-05-19T20:06:25.460Z,14.80
2023-05-19T20:08:53.185Z,14.76
2023-05-19T20:11:23.002Z,14.71
2023-05-19T20:13:50.825Z,14.64
2023-05-19T20:16:19.009Z,14.62
2023-05-19T20:18:49.030Z,14.60
2023-05-19T20:21:16.818Z,14.62
2023-05-19T20:23:44.592Z,14.59
2023-05-19T20:26:13.484Z,14.56
2023-05-19T20:28:41.574Z,14.55
2023-05-19T20:31:10.179Z,14.54
2023-05-19T20:33:37.561Z,14.53
2023-05-19T20:36:08.228Z,14.48
2023-05-19T20:38:36.141Z,14.43
2023-05-19T20:41:04.029Z,14.42
2023-05-19T20:43:33.137Z,14.40
2023-05-19T20:46:01.780Z,14.44
2023-05-19T20:48:30.840Z,14.39
2023-05-19T20:50:58.509Z,14.37
2023-05-19T20:53:26.462Z,14.30
2023-05-19T20:55:54.036Z,14.20
2023-05-19T20:58:21.926Z,14.11
2023-05-19T21:00:56.970Z,14.01
2023-05-19T21:03:27.145Z,13.95
2023-05-19T21:05:55.671Z,13.87
2023-05-19T21:08:24.166Z,13.76
2023-05-19T21:10:51.758Z,13.74
2023-05-19T21:13:19.398Z,13.69
2023-05-19T21:15:50.335Z,13.63
2023-05-19T21:18:18.059Z,13.57
2023-05-19T21:20:46.908Z,13.52
2023-05-19T21:23:14.489Z,13.47
2023-05-19T21:25:43.432Z,13.37
2023-05-19T21:28:12.931Z,13.32
2023-05-19T21:30:40.648Z,13.28
2023-05-19T21:33:08.524Z,13.22
2023-05-19T21:35:37.929Z,13.24
2023-05-19T21:38:15.694Z,13.18
2023-05-19T21:40:51.048Z,13.10
2023-05-19T21:43:19.520Z,13.11
2023-05-19T21:45:47.206Z,13.13
2023-05-19T21:48:14.737Z,13.09
2023-05-19T21:50:42.421Z,12.94
2023-05-19T21:53:10.076Z,12.89
2023-05-19T21:55:37.723Z,12.88
2023-05-19T21:58:05.238Z,12.85
2023-05-19T22:00:32.962Z,12.82
2023-05-19T22:03:00.786Z,12.84
2023-05-19T22:05:32.161Z,12.83
2023-05-19T22:07:59.926Z,12.77
2023-05-19T22:10:27.700Z,12.76
2023-05-19T22:12:55.527Z,12.74
2023-05-19T22:15:23.225Z,12.76
2023-05-19T22:17:51.196Z,12.79
2023-05-19T22:20:18.832Z,12.77
2023-05-19T22:22:46.331Z,12.81
2023-05-19T22:25:13.906Z,12.87
2023-05-19T22:27:41.406Z,12.90
2023-05-19T22:30:09.214Z,12.93
2023-05-19T22:32:36.724Z,12.93
2023-05-19T22:35:06.445Z,12.90
2023-05-19T22:37:34.223Z,12.91
2023-05-19T22:40:01.735Z,12.91
2023-05-19T22:42:29.186Z,12.92
2023-05-19T22:44:56.801Z,12.96
2023-05-19T22:47:24.396Z,13.02
2023-05-19T22:49:52.470Z,13.09
2023-05-19T22:52:20.897Z,13.13
2023-05-19T22:54:48.640Z,13.13
2023-05-19T22:57:16.849Z,13.19
2023-05-19T22:59:44.316Z,13.25
2023-05-19T23:02:11.830Z,13.25
2023-05-19T23:04:39.399Z,13.25
2023-05-19T23:07:07.007Z,13.26
2023-05-19T23:09:34.487Z,13.22
2023-05-19T23:12:01.975Z,13.10
2023-05-19T23:14:29.811Z,13.12
2023-05-19T23:16:57.593Z,13.10
2023-05-19T23:19:25.382Z,13.09
2023-05-19T23:21:53.051Z,12.83
2023-05-19T23:24:20.670Z,12.66
2023-05-19T23:26:48.179Z,12.63
2023-05-19T23:29:16.099Z,12.61
2023-05-19T23:31:44.789Z,12.58
2023-05-19T23:34:12.399Z,12.56
2023-05-19T23:36:40.065Z,12.59
2023-05-19T23:39:07.729Z,12.57
2023-05-19T23:41:35.301Z,12.58
2023-05-19T23:44:02.946Z,12.57
2023-05-19T23:46:30.774Z,12.57
2023-05-19T23:48:58.333Z,12.59
2023-05-19T23:51:26.217Z,12.56
2023-05-19T23:53:53.635Z,12.59
2023-05-19T23:56:21.735Z,12.60
2023-05-19T23:58:49.270Z,12.59
